Guapo, Brazil
Current Conditions -  °F | °C
As of 12:00 AM on Monday 20 Oct 2014 (Local Time) from SBGO Reporting Station
Light Rain Light Rain  
Wind Chill: 79°   Ceiling: 8000
Heat Index: 79°   Visibility: 6mi
Dew Point: 55°   Wind: 8mph
Humidity: 44%   Direction: 200°SSW
Pressure: 29.97"   Gusts: NA
Location:  16.83°S, 49.53°W
Report Text: SBGO 200300Z 20007KT 140V260 9999 -RA FEW045 BKN080 26/13 Q1015 RETS
Loading
Personal Weather Stations






























Interactive Weather Map
Tropical Storm Tracking
New forecast layout! Learn more

10-Day Weather Forecast

Advertisements
Track Severe Weather on mobile